This is the latest recevied weather packets stored in our database for station/object F4ETJ-1. If no packets are shown the sender has not sent any weather packets the latest 1 day(s).
| Time | Temp. | Humidity | Pressure | Rain* | Wind** | Luminosity | Snow |
|---|---|---|---|---|---|---|---|
| 1778077752 | 13.33° C | 90% | 1008.7 hPa | 2.54 mm | - | - | - |
| 1778076671 | 13.89° C | 91% | 1008.5 hPa | 4.83 mm | - | - | - |
| 1778075590 | 13.33° C | 91% | 1008.5 hPa | 5.84 mm | - | - | - |
| 1778074509 | 13.33° C | 91% | 1008.4 hPa | 7.11 mm | - | - | - |
| 1778073428 | 13.33° C | 90% | 1008.4 hPa | 4.32 mm | - | - | - |
| 1778072347 | 13.33° C | 89% | 1008.3 hPa | 3.56 mm | - | - | - |
| 1778071266 | 14.44° C | 87% | 1008.2 hPa | 0.25 mm | - | - | - |
| 1778070185 | 14.44° C | 86% | 1008.2 hPa | 0 mm | - | - | - |
| 1778069825 | 14.44° C | 87% | 1008.1 hPa | 0.25 mm | - | - | - |
| 1778066221 | 12.78° C | 92% | 1008.1 hPa | 2.79 mm | - | - | - |
| 1778065140 | 12.78° C | 92% | 1008.1 hPa | 0.51 mm | - | - | - |
| 1778064780 | 12.78° C | 91% | 1008 hPa | 0.25 mm | - | - | - |
| 1778064059 | 12.78° C | 90% | 1007.9 hPa | 0.25 mm | - | - | - |
| 1778063339 | 13.33° C | 89% | 1007.9 hPa | 0.25 mm | - | - | - |
| 1778062978 | 13.33° C | 89% | 1007.9 hPa | 0 mm | - | - | - |
| 1778062618 | 13.33° C | 89% | 1007.9 hPa | 0 mm | - | - | - |
| 1778061897 | 13.33° C | 89% | 1007.9 hPa | 0 mm | - | - | - |
| 1778061176 | 13.33° C | 90% | 1007.8 hPa | 0 mm | - | - | - |
| 1778060816 | 13.33° C | 90% | 1007.7 hPa | 0 mm | - | - | - |
| 1778060456 | 13.33° C | 90% | 1007.6 hPa | 0 mm | - | - | - |
| 1778060095 | 13.33° C | 92% | 1007.6 hPa | 0 mm | - | - | - |
| 1778059735 | 13.33° C | 92% | 1007.5 hPa | 0 mm | - | - | - |
| 1778057573 | 12.78° C | 95% | 1007.2 hPa | 0.51 mm | - | - | - |
| 1778057212 | 12.78° C | 95% | 1007.2 hPa | 0.51 mm | - | - | - |
| 1778056852 | 12.22° C | 95% | 1007.2 hPa | 0.51 mm | - | - | - |
* Rain latest hour (hover to see other rain measurements)
** Current wind speed in m/s (hover to see current wind gust speed)